KSUX/SUX METAR and TAF weather

Enter ICAO airport designator
Station Type Date Time Source
KSUX METAR 2020/07/11 00:52 UTC NOAA

KSUX 110052Z AUTO 18007KT 10SM CLR 28/22 A2993 RMK AO2 SLP128 T02780222


Station Type Date Time Source
KSUX Decoded METAR 2020/07/11 00:52 UTC NOAA

SIOUX GATEWAY AIRPORT, IA, United States (KSUX) 42-23N 96-23W 338M
Jul 10, 2020 - 08:52 PM EDT / 2020.07.11 0052 UTC
Wind: from the S (180 degrees) at 8 MPH (7 KT):0
Visibility: 10 mile(s):0
Sky conditions: clear
Temperature: 82.0 F (27.8 C)
Dew Point: 72.0 F (22.2 C)
Relative Humidity: 71%
Pressure (altimeter): 29.93 in. Hg (1013 hPa)
ob: KSUX 110052Z AUTO 18007KT 10SM CLR 28/22 A2993 RMK AO2 SLP128 T02780222
cycle: 1

Station Type Date Time Source
KSUX TAF 2020/07/10 18:45 UTC NOAA

TAF KSUX 101740Z 1018/1118 19010KT P6SM SCT250
FM110400 VRB25G35KT 3SM TSRA OVC025CB
FM110530 VRB04KT P6SM SCT060 BKN200

Example: see airport list